Time;durP1;ratioP1;P1;durP2;ratioP2;P2;SDS_P1;SDS_P2;PMS_P1;PMS_P2;Temp;Humidity;BMP_temperature;BMP_pressure;BME280_temperature;BME280_humidity;BME280_pressure;Samples;Min_cycle;Max_cycle;Signal;HPM_P1;HPM_P2
2022/04/10 00:00:13;;;;;;;5.97;2.55;;;4.60;66.60;;;2.84;66.86;96011.78;4894528;28;20422;-67
2022/04/10 00:02:41;;;;;;;6.85;2.50;;;4.60;66.40;;;2.83;67.08;96015.34;4878153;28;20354;-66
2022/04/10 00:05:08;;;;;;;7.05;2.42;;;4.50;66.20;;;2.83;66.79;96014.53;4886677;28;20782;-67
2022/04/10 00:07:35;;;;;;;8.70;2.50;;;4.50;66.40;;;2.79;66.83;96014.00;4901675;28;20565;-68
2022/04/10 00:10:01;;;;;;;5.30;2.20;;;4.50;66.50;;;2.77;66.74;96015.91;4895190;28;20291;-68
2022/04/10 00:13:03;;;;;;;4.80;2.20;;;4.40;66.40;;;2.72;68.93;96013.75;4926515;28;20662;-67
2022/04/10 00:15:29;;;;;;;6.30;2.25;;;4.40;66.40;;;2.70;66.69;96020.03;4909136;28;20363;-68
2022/04/10 00:17:55;;;;;;;4.22;1.90;;;4.30;66.60;;;2.68;66.86;96012.38;4871765;28;20585;-69
2022/04/10 00:20:21;;;;;;;5.40;2.65;;;4.30;66.60;;;2.69;66.88;96019.22;4924682;28;20048;-67
2022/04/10 00:22:48;;;;;;;7.55;2.67;;;4.40;66.70;;;2.69;66.96;96023.59;4934106;28;20367;-66
2022/04/10 00:25:16;;;;;;;9.07;2.70;;;4.30;66.80;;;2.67;67.22;96015.13;4907267;28;20364;-68
2022/04/10 00:27:42;;;;;;;5.85;2.33;;;4.30;66.70;;;2.66;67.07;96019.50;4902018;28;20383;-66
2022/04/10 00:30:10;;;;;;;6.88;2.30;;;4.30;66.50;;;2.66;67.01;96027.28;4917227;28;20310;-66
2022/04/10 00:32:36;;;;;;;6.20;2.10;;;4.30;66.80;;;2.64;66.91;96020.59;4902847;28;20402;-68
2022/04/10 00:35:05;;;;;;;6.97;2.55;;;4.30;66.80;;;2.58;67.70;96016.00;4929723;28;20449;-67
2022/04/10 00:37:32;;;;;;;5.05;2.28;;;4.20;67.10;;;2.57;67.36;96020.34;4914692;28;20619;-67
2022/04/10 00:39:59;;;;;;;4.30;2.28;;;4.20;67.50;;;2.56;67.61;96023.09;4877642;28;20422;-67
2022/04/10 00:42:46;;;;;;;3.47;2.10;;;4.20;67.60;;;2.53;69.45;96023.38;4888202;28;20310;-67
2022/04/10 00:45:12;;;;;;;7.65;2.85;;;4.20;67.80;;;2.47;67.61;96022.97;4931015;28;20404;-67
2022/04/10 00:47:38;;;;;;;4.25;2.35;;;4.10;68.20;;;2.47;68.07;96025.56;4908091;28;20485;-67
2022/04/10 00:50:06;;;;;;;5.97;2.15;;;4.10;68.30;;;2.46;68.22;96023.09;4905100;28;20336;-68
2022/04/10 00:52:32;;;;;;;4.90;2.33;;;4.20;68.30;;;2.45;68.62;96030.09;4888209;28;20690;-68
2022/04/10 00:54:59;;;;;;;6.70;2.22;;;4.10;68.40;;;2.36;67.88;96028.34;4927316;28;20493;-67
2022/04/10 00:57:25;;;;;;;6.78;2.60;;;4.00;68.80;;;2.32;68.30;96031.34;4904868;28;20339;-67
2022/04/10 00:59:52;;;;;;;6.93;2.70;;;3.90;68.80;;;2.27;68.29;96029.19;4903190;28;20466;-66
2022/04/10 01:02:18;;;;;;;6.10;2.38;;;3.90;69.10;;;2.27;68.83;96028.38;4909819;28;20433;-67
2022/04/10 01:04:46;;;;;;;7.18;2.40;;;3.90;68.70;;;2.24;69.22;96019.06;4896902;28;20053;-66
2022/04/10 01:07:12;;;;;;;6.63;2.58;;;4.00;68.60;;;2.20;68.92;96029.88;4921273;28;20332;-68
2022/04/10 01:09:41;;;;;;;7.28;2.95;;;3.90;68.60;;;2.11;68.77;96024.56;4935902;28;20394;-68
2022/04/10 01:12:11;;;;;;;7.60;3.17;;;3.70;69.00;;;2.03;69.23;96033.97;4880493;28;20573;-69
2022/04/10 01:14:38;;;;;;;5.45;3.33;;;3.60;69.20;;;1.95;68.90;96034.66;4885975;28;20358;-67
2022/04/10 01:17:08;;;;;;;5.93;2.80;;;3.50;69.50;;;1.91;70.01;96037.69;4869665;28;20327;-66
2022/04/10 01:19:44;;;;;;;9.10;3.08;;;3.50;69.50;;;1.89;69.56;96039.59;4919896;28;20739;-70
2022/04/10 01:22:34;;;;;;;7.15;3.10;;;3.50;69.50;;;1.86;71.08;96034.69;4925807;28;20318;-66
2022/04/10 01:25:03;;;;;;;7.50;2.75;;;3.60;69.30;;;1.82;69.58;96034.97;4925369;28;20799;-67
2022/04/10 01:27:29;;;;;;;8.57;3.05;;;3.50;69.20;;;1.82;69.13;96040.16;4913584;28;20484;-68
2022/04/10 01:29:56;;;;;;;8.50;3.47;;;3.40;69.30;;;1.79;69.25;96035.22;4895585;28;20821;-67
2022/04/10 01:32:25;;;;;;;6.88;3.25;;;3.50;69.20;;;1.79;69.79;96039.56;4900801;28;20660;-66
2022/04/10 01:34:51;;;;;;;5.68;3.05;;;3.50;69.30;;;1.77;69.85;96033.72;4916787;28;20495;-68
2022/04/10 01:37:21;;;;;;;6.20;3.10;;;3.50;69.20;;;1.76;70.29;96040.66;4898155;28;20342;-67
2022/04/10 01:39:47;;;;;;;6.22;2.92;;;3.50;69.30;;;1.77;69.73;96037.13;4911001;28;20639;-67
2022/04/10 01:42:13;;;;;;;7.90;3.42;;;3.60;69.10;;;1.76;69.10;96035.47;4908146;28;20452;-68
2022/04/10 01:44:41;;;;;;;6.25;3.00;;;3.50;69.20;;;1.73;69.79;96035.75;4887974;28;20703;-67
2022/04/10 01:47:07;;;;;;;6.97;3.40;;;3.40;69.60;;;1.69;69.99;96039.59;4901870;28;20389;-67
2022/04/10 01:49:36;;;;;;;7.45;3.20;;;3.30;69.90;;;1.62;69.42;96045.47;4907870;28;20667;-65
2022/04/10 01:52:03;;;;;;;7.13;3.15;;;3.30;70.20;;;1.60;70.44;96040.41;4894848;28;20470;-66
2022/04/10 01:54:29;;;;;;;6.35;3.35;;;3.30;70.30;;;1.56;70.69;96044.19;4888099;28;20338;-67
2022/04/10 01:56:56;;;;;;;7.03;3.35;;;3.30;70.60;;;1.53;70.34;96047.88;4932330;28;20409;-67
2022/04/10 02:02:05;;;;;;;5.57;3.17;;;3.20;70.80;;;1.52;71.06;96042.84;5042879;22;20355;-65
2022/04/10 02:04:32;;;;;;;6.57;3.20;;;3.20;71.20;;;1.53;70.63;96040.09;4873024;28;20812;-65
2022/04/10 02:06:58;;;;;;;8.60;3.60;;;3.30;71.20;;;1.54;70.99;96046.09;4874125;28;20372;-65
2022/04/10 02:09:24;;;;;;;8.20;3.22;;;3.20;71.10;;;1.56;71.70;96049.38;4867441;28;20703;-65
2022/04/10 02:11:59;;;;;;;4.03;2.80;;;3.30;71.10;;;1.59;72.74;96051.72;4912594;28;20408;-65
2022/04/10 02:14:25;;;;;;;7.22;3.05;;;3.40;70.90;;;1.60;71.73;96050.78;4883668;28;20344;-65
2022/04/10 02:16:51;;;;;;;8.30;3.17;;;3.40;71.10;;;1.59;71.73;96043.97;4874157;28;20452;-65
2022/04/10 02:19:17;;;;;;;9.27;3.50;;;3.30;71.20;;;1.60;71.69;96052.56;4893680;28;20259;-65
2022/04/10 02:21:43;;;;;;;9.32;3.60;;;3.40;71.60;;;1.60;71.62;96043.00;4898775;28;20704;-65
2022/04/10 02:24:10;;;;;;;6.45;3.20;;;3.40;71.50;;;1.62;71.62;96054.06;4883271;28;20406;-65
2022/04/10 02:26:36;;;;;;;8.38;3.47;;;3.40;71.50;;;1.63;71.81;96047.91;4887452;28;20321;-66
2022/04/10 02:29:02;;;;;;;7.63;3.15;;;3.40;71.60;;;1.64;72.37;96048.72;4883589;28;20346;-65
2022/04/10 02:31:28;;;;;;;7.57;3.47;;;3.40;71.60;;;1.67;72.46;96054.47;4885906;28;20288;-66
2022/04/10 02:33:54;;;;;;;7.93;3.28;;;3.50;71.40;;;1.69;71.79;96056.91;4908237;28;20447;-65
2022/04/10 02:36:22;;;;;;;6.40;2.90;;;3.50;71.40;;;1.71;72.01;96052.41;4917347;28;20544;-66
2022/04/10 02:38:48;;;;;;;6.30;3.47;;;3.50;71.60;;;1.69;72.56;96054.31;4873061;28;20690;-66
2022/04/10 02:41:14;;;;;;;7.40;3.25;;;3.40;71.70;;;1.71;72.73;96063.59;4890394;28;20277;-65
2022/04/10 02:43:40;;;;;;;7.15;3.33;;;3.60;71.60;;;1.74;72.38;96054.72;4897782;28;20245;-65
2022/04/10 02:46:06;;;;;;;8.15;3.17;;;3.60;71.80;;;1.72;73.00;96052.28;4897749;28;20501;-65
2022/04/10 02:48:34;;;;;;;9.30;3.22;;;3.50;71.70;;;1.72;73.19;96061.81;4867032;28;20465;-65
2022/04/10 02:51:01;;;;;;;8.43;3.45;;;3.60;71.80;;;1.74;73.10;96063.31;4898655;28;20668;-65
2022/04/10 02:53:27;;;;;;;5.85;3.63;;;3.60;71.80;;;1.76;73.12;96063.19;4903609;28;20358;-65
2022/04/10 02:55:53;;;;;;;6.78;3.08;;;3.60;71.80;;;1.77;72.82;96070.84;4903637;28;20231;-65
2022/04/10 02:58:19;;;;;;;5.88;3.20;;;3.70;71.60;;;1.79;73.52;96065.50;4877976;28;20580;-65
2022/04/10 03:00:47;;;;;;;8.77;3.60;;;3.60;71.80;;;1.81;73.41;96071.38;4874855;28;20364;-65
2022/04/10 03:03:14;;;;;;;7.75;3.55;;;3.70;71.70;;;1.81;72.92;96069.63;4899845;28;20571;-65
2022/04/10 03:05:40;;;;;;;6.03;3.53;;;3.60;71.90;;;1.81;73.56;96072.22;4891469;28;20625;-66
2022/04/10 03:08:06;;;;;;;6.68;3.40;;;3.70;72.00;;;1.78;72.72;96075.06;4888393;28;20441;-65
2022/04/10 03:10:32;;;;;;;7.97;3.47;;;3.60;72.40;;;1.79;73.70;96073.28;4902505;28;20612;-65
2022/04/10 03:12:58;;;;;;;6.70;3.60;;;3.60;72.60;;;1.81;73.39;96068.78;4887073;28;20310;-65
2022/04/10 03:15:24;;;;;;;5.88;3.40;;;3.60;72.60;;;1.81;74.05;96069.63;4883861;28;20363;-66
2022/04/10 03:17:50;;;;;;;6.05;3.28;;;3.70;72.90;;;1.86;74.16;96068.41;4880149;28;20551;-66
2022/04/10 03:20:17;;;;;;;6.28;3.35;;;3.70;72.90;;;1.88;74.29;96069.06;4877073;28;20350;-67
2022/04/10 03:22:43;;;;;;;6.07;3.65;;;3.70;72.90;;;1.88;74.03;96076.84;4882595;28;20314;-66
2022/04/10 03:25:10;;;;;;;8.48;3.58;;;3.70;73.10;;;1.90;74.26;96073.19;4877335;28;20470;-65
2022/04/10 03:27:36;;;;;;;7.72;3.53;;;3.80;73.00;;;1.91;74.01;96067.03;4872601;28;20813;-65
2022/04/10 03:30:03;;;;;;;7.75;3.50;;;3.80;72.90;;;1.94;74.71;96073.72;4889704;28;20749;-66
2022/04/10 03:32:29;;;;;;;8.63;3.65;;;3.80;72.80;;;1.95;74.52;96072.75;4867269;28;20223;-65
2022/04/10 03:34:55;;;;;;;6.93;3.42;;;3.80;72.70;;;1.95;74.55;96075.34;4902719;28;20322;-65
2022/04/10 03:37:21;;;;;;;5.85;3.30;;;3.80;72.90;;;1.90;74.63;96083.53;4871083;28;20211;-66
2022/04/10 03:39:47;;;;;;;6.57;3.42;;;3.70;73.00;;;1.91;74.44;96079.19;4901812;28;20498;-66
2022/04/10 03:42:13;;;;;;;8.40;3.80;;;3.80;72.80;;;1.92;74.93;96080.81;4901654;28;20420;-66
2022/04/10 03:44:39;;;;;;;7.88;3.72;;;3.80;72.90;;;1.89;74.56;96078.50;4907083;28;20810;-66
2022/04/10 03:47:06;;;;;;;5.50;3.40;;;3.80;73.00;;;1.88;75.17;96080.28;4886718;28;20650;-66
2022/04/10 03:49:32;;;;;;;9.25;3.65;;;3.80;73.20;;;1.84;74.58;96084.91;4884660;28;20476;-64
2022/04/10 03:51:59;;;;;;;6.88;3.42;;;3.60;73.30;;;1.83;74.98;96093.66;4888492;28;20691;-64
2022/04/10 03:54:25;;;;;;;6.75;3.45;;;3.60;73.50;;;1.82;74.85;96092.00;4900109;28;20486;-65
2022/04/10 03:56:51;;;;;;;8.57;3.42;;;3.60;73.50;;;1.79;75.42;96092.25;4873174;28;20565;-64
2022/04/10 03:59:17;;;;;;;4.85;3.30;;;3.60;73.60;;;1.77;75.25;96096.75;4890232;28;20402;-65
2022/04/10 04:01:43;;;;;;;9.30;3.40;;;3.60;73.80;;;1.75;74.92;96096.09;4896221;28;20341;-65
2022/04/10 04:04:09;;;;;;;8.60;2.97;;;3.60;74.00;;;1.71;76.00;96105.09;4900874;28;20351;-65
2022/04/10 04:06:36;;;;;;;5.45;3.22;;;3.50;74.40;;;1.67;75.89;96098.53;4893198;28;20357;-65
2022/04/10 04:09:02;;;;;;;5.63;3.25;;;3.50;74.40;;;1.65;75.82;96105.63;4890004;28;20417;-64
2022/04/10 04:11:28;;;;;;;5.57;3.40;;;3.50;74.50;;;1.60;76.07;96107.00;4866788;28;20374;-65
2022/04/10 04:13:55;;;;;;;6.00;3.90;;;3.40;75.00;;;1.57;76.66;96108.06;4874657;28;20535;-65
2022/04/10 04:16:21;;;;;;;6.53;3.88;;;3.40;75.30;;;1.52;76.35;96110.22;4895873;28;20691;-65
2022/04/10 04:18:48;;;;;;;9.35;4.10;;;3.30;75.60;;;1.46;76.54;96110.78;4904399;28;20280;-64
2022/04/10 04:21:14;;;;;;;7.63;3.83;;;3.20;76.00;;;1.43;76.66;96106.66;4878413;28;20359;-64
2022/04/10 04:23:40;;;;;;;7.05;4.05;;;3.20;76.10;;;1.41;76.82;96118.13;4893119;28;20266;-64
2022/04/10 04:26:06;;;;;;;13.63;8.18;;;3.20;76.10;;;1.39;76.96;96114.84;4867944;28;20354;-64
2022/04/10 04:28:35;;;;;;;10.48;7.15;;;3.20;76.20;;;1.41;77.68;96123.31;4887341;28;20419;-64
2022/04/10 04:31:01;;;;;;;9.45;4.78;;;3.30;76.10;;;1.39;78.08;96120.03;4876668;28;20588;-63
2022/04/10 04:33:27;;;;;;;10.73;6.70;;;3.20;76.40;;;1.40;77.93;96121.66;4890432;28;20568;-63
2022/04/10 04:35:53;;;;;;;14.40;7.57;;;3.30;76.30;;;1.41;77.31;96125.91;4904058;28;20294;-64
2022/04/10 04:38:19;;;;;;;11.60;5.13;;;3.30;76.30;;;1.40;78.10;96129.44;4877835;28;20422;-64
2022/04/10 04:40:45;;;;;;;9.45;4.43;;;3.30;76.30;;;1.40;78.40;96138.03;4885935;28;20558;-63
2022/04/10 04:43:11;;;;;;;6.63;3.90;;;3.20;76.20;;;1.41;78.24;96133.69;4918358;28;20374;-65
2022/04/10 04:45:38;;;;;;;7.95;4.10;;;3.30;76.20;;;1.39;77.89;96133.00;4907400;28;20395;-64
2022/04/10 04:48:04;;;;;;;7.13;4.40;;;3.20;76.30;;;1.37;78.40;96137.50;4909368;28;20327;-64
2022/04/10 04:50:31;;;;;;;6.30;4.05;;;3.10;76.40;;;1.37;78.29;96137.50;4895598;28;20350;-64
2022/04/10 04:52:57;;;;;;;8.27;4.13;;;3.20;76.50;;;1.37;78.26;96132.31;4889322;28;20406;-65
2022/04/10 04:55:23;;;;;;;9.40;5.53;;;3.20;76.30;;;1.37;78.58;96145.25;4899268;28;20438;-64
2022/04/10 04:57:49;;;;;;;11.43;6.35;;;3.20;76.50;;;1.37;78.54;96147.84;4904645;28;20299;-64
2022/04/10 05:00:16;;;;;;;7.65;4.90;;;3.20;76.50;;;1.38;78.03;96144.31;4880542;28;20339;-65
2022/04/10 05:02:43;;;;;;;7.35;4.18;;;3.20;76.70;;;1.40;79.02;96148.41;4885580;28;20446;-64
2022/04/10 05:05:09;;;;;;;15.13;7.90;;;3.30;76.60;;;1.47;78.83;96152.09;4883158;28;20379;-64
2022/04/10 05:07:35;;;;;;;18.17;10.65;;;3.50;77.20;;;1.56;79.27;96155.66;4895533;28;20422;-65
2022/04/10 05:10:01;;;;;;;9.75;5.15;;;3.60;77.20;;;1.68;80.00;96157.22;4881099;28;20551;-64
2022/04/10 05:12:28;;;;;;;7.85;4.47;;;3.80;76.70;;;1.74;78.64;96167.03;4908904;28;20573;-64
2022/04/10 05:14:54;;;;;;;10.85;7.50;;;3.70;75.30;;;1.82;78.65;96156.84;4896004;28;20258;-65
2022/04/10 05:17:20;;;;;;;13.65;8.30;;;3.80;75.50;;;1.84;79.25;96157.53;4901264;28;20430;-69
2022/04/10 05:19:46;;;;;;;5.68;4.20;;;3.80;75.30;;;1.90;78.28;96165.72;4886078;28;20572;-65
2022/04/10 05:22:12;;;;;;;5.97;4.50;;;3.80;74.90;;;1.94;78.53;96164.50;4889948;28;20478;-64
2022/04/10 05:24:38;;;;;;;6.35;3.90;;;3.90;74.90;;;1.99;78.85;96173.50;4890603;28;20504;-65
2022/04/10 05:27:05;;;;;;;6.35;3.97;;;3.90;74.70;;;2.01;78.59;96176.78;4920647;28;20461;-63
2022/04/10 05:29:31;;;;;;;6.72;4.28;;;3.90;75.00;;;2.06;78.29;96176.41;4869350;28;20414;-66
2022/04/10 05:31:57;;;;;;;7.35;3.92;;;4.10;74.60;;;2.11;78.74;96184.59;4856240;28;20309;-67
2022/04/10 05:34:23;;;;;;;6.95;4.00;;;4.10;74.60;;;2.15;78.29;96191.16;4921695;28;20327;-66
2022/04/10 05:36:50;;;;;;;6.82;4.30;;;4.10;74.60;;;2.18;78.44;96183.09;4884855;28;20303;-66
2022/04/10 05:39:16;;;;;;;8.25;4.07;;;4.10;74.40;;;2.20;78.28;96188.97;4895827;28;20287;-66
2022/04/10 05:41:42;;;;;;;7.45;4.38;;;4.10;74.50;;;2.23;78.35;96195.66;4883291;28;20513;-65
2022/04/10 05:44:08;;;;;;;6.07;3.90;;;4.10;74.30;;;2.29;78.33;96197.75;4886071;28;20387;-66
2022/04/10 05:46:38;;;;;;;12.70;7.70;;;4.20;74.00;;;2.32;78.19;96198.28;4907868;28;20319;-65
2022/04/10 05:49:06;;;;;;;10.88;7.00;;;4.30;74.20;;;2.37;78.17;96211.66;4919650;28;20894;-65
2022/04/10 05:51:32;;;;;;;14.05;9.65;;;4.40;74.60;;;2.44;78.40;96219.72;4874059;28;20565;-66
2022/04/10 05:53:58;;;;;;;14.65;7.72;;;4.40;74.30;;;2.48;78.52;96218.50;4886472;28;20405;-65
2022/04/10 05:56:24;;;;;;;12.18;7.00;;;4.40;74.20;;;2.51;77.65;96222.63;4872516;28;20931;-65
2022/04/10 05:58:50;;;;;;;11.23;7.97;;;4.50;73.80;;;2.53;78.04;96221.53;4871541;28;20540;-66
2022/04/10 06:01:17;;;;;;;13.30;8.60;;;4.50;73.60;;;2.55;77.83;96229.19;4902796;28;20500;-66
2022/04/10 06:03:43;;;;;;;9.32;5.30;;;4.40;73.80;;;2.59;77.90;96238.31;4888138;28;20351;-66
2022/04/10 06:06:09;;;;;;;5.97;4.75;;;4.60;73.80;;;2.60;77.89;96232.19;4904696;28;20364;-67
2022/04/10 06:08:35;;;;;;;7.95;4.32;;;4.50;73.40;;;2.62;77.75;96231.09;4928342;28;20068;-66
2022/04/10 06:11:01;;;;;;;10.25;4.65;;;4.50;73.30;;;2.66;77.50;96242.84;4922739;28;20315;-66
2022/04/10 06:13:27;;;;;;;5.40;3.92;;;4.60;72.70;;;2.70;77.49;96244.19;4906627;28;20412;-66
2022/04/10 06:15:53;;;;;;;7.10;4.47;;;4.70;72.70;;;2.75;77.23;96243.81;4888632;28;20478;-66
2022/04/10 06:18:20;;;;;;;7.07;4.18;;;4.80;72.40;;;2.83;77.35;96248.31;4890080;28;20496;-66
2022/04/10 06:20:46;;;;;;;8.45;4.50;;;4.90;72.00;;;2.90;77.14;96250.22;4905995;28;20489;-66
2022/04/10 06:23:12;;;;;;;7.15;4.47;;;5.10;71.40;;;2.97;76.88;96251.31;4909818;28;20359;-66
2022/04/10 06:25:40;;;;;;;8.27;4.63;;;5.10;71.30;;;3.04;76.88;96252.41;4879082;28;20426;-67
2022/04/10 06:28:06;;;;;;;7.70;4.85;;;5.20;71.20;;;3.10;76.87;96270.97;4922570;28;20362;-67
2022/04/10 06:30:33;;;;;;;7.22;4.75;;;5.10;71.30;;;3.15;76.49;96269.59;4877136;28;20530;-68
2022/04/10 06:32:59;;;;;;;7.03;4.40;;;5.20;70.60;;;3.22;76.62;96275.91;4871213;28;20385;-68
2022/04/10 06:35:25;;;;;;;8.02;4.60;;;5.30;70.20;;;3.26;76.10;96268.66;4905715;28;20492;-67
2022/04/10 06:37:52;;;;;;;6.57;4.22;;;5.40;70.20;;;3.27;76.16;96272.88;4878155;28;20450;-68
2022/04/10 06:40:18;;;;;;;12.48;8.05;;;5.20;69.80;;;3.31;75.38;96269.03;4894274;28;20474;-67
2022/04/10 06:42:44;;;;;;;7.78;4.70;;;5.50;69.80;;;3.38;75.87;96276.13;4942420;28;20383;-69
2022/04/10 06:45:10;;;;;;;13.82;7.82;;;5.60;69.10;;;3.51;76.31;96267.22;4907128;28;20319;-68
2022/04/10 06:47:36;;;;;;;9.63;5.95;;;5.80;68.40;;;3.69;75.51;96271.56;4900878;28;20342;-67
2022/04/10 06:50:03;;;;;;;8.25;4.57;;;6.10;67.60;;;3.87;74.87;96268.19;4881318;28;20547;-64
2022/04/10 06:52:29;;;;;;;6.30;3.95;;;6.30;67.00;;;4.06;74.84;96275.91;4913977;28;20951;-66
2022/04/10 06:54:55;;;;;;;5.55;3.70;;;6.60;66.40;;;4.23;74.23;96267.31;4898622;28;20303;-66
2022/04/10 06:57:21;;;;;;;4.85;3.70;;;6.60;65.40;;;4.43;74.61;96277.63;4884670;28;20288;-66
2022/04/10 06:59:48;;;;;;;5.43;3.53;;;7.00;65.50;;;4.58;73.75;96273.56;4875797;28;20341;-66
2022/04/10 07:02:14;;;;;;;5.95;3.95;;;7.10;64.30;;;4.72;73.24;96273.03;4894249;28;20708;-65
2022/04/10 07:04:40;;;;;;;6.65;4.18;;;7.20;63.40;;;4.88;72.25;96278.41;4888560;28;20852;-66
2022/04/10 07:07:06;;;;;;;5.38;3.90;;;7.40;62.90;;;5.10;72.16;96286.75;4880909;28;20247;-63
2022/04/10 07:09:32;;;;;;;6.18;3.30;;;7.90;62.20;;;5.30;71.60;96275.19;4877109;28;20695;-66
2022/04/10 07:11:58;;;;;;;7.07;3.70;;;8.10;60.80;;;5.48;70.77;96281.19;4880775;28;20486;-65
2022/04/10 07:14:25;;;;;;;6.95;3.90;;;8.20;59.30;;;5.58;70.00;96288.09;4898021;28;20370;-67
2022/04/10 07:16:51;;;;;;;5.82;3.75;;;8.20;59.40;;;5.72;69.82;96290.13;4920363;28;20378;-67
2022/04/10 07:19:18;;;;;;;5.82;4.40;;;8.60;58.70;;;5.93;69.64;96282.78;4881791;28;20478;-67
2022/04/10 07:24:28;;;;;;;5.38;3.50;;;8.70;58.00;;;6.22;68.20;96294.66;4895288;28;20543;-67
2022/04/10 07:26:54;;;;;;;5.05;3.47;;;9.10;57.30;;;6.39;67.16;96288.53;4890526;28;20370;-67
2022/04/10 07:29:21;;;;;;;5.25;3.70;;;9.30;55.60;;;6.54;66.81;96281.69;4872654;28;20568;-63
2022/04/10 07:31:47;;;;;;;6.93;4.03;;;9.10;55.40;;;6.67;65.97;96287.31;4867041;28;20368;-67
2022/04/10 07:34:13;;;;;;;5.43;3.35;;;9.40;54.70;;;6.85;66.06;96283.75;4917732;28;20343;-66
2022/04/10 07:36:39;;;;;;;7.38;3.42;;;9.40;54.00;;;7.05;64.45;96290.31;4915101;28;20792;-67
2022/04/10 07:39:05;;;;;;;6.03;3.65;;;9.90;53.00;;;7.22;63.89;96288.50;4899947;28;20298;-67
2022/04/10 07:41:31;;;;;;;5.15;3.60;;;9.70;52.60;;;7.31;62.90;96293.59;4907857;28;20409;-63
2022/04/10 07:43:57;;;;;;;9.52;5.47;;;9.70;51.50;;;7.31;61.83;96288.34;4892080;28;20574;-66
2022/04/10 07:49:08;;;;;;;5.60;4.30;;;9.50;51.20;;;7.24;60.96;96295.22;4909229;28;20381;-67
2022/04/10 07:51:34;;;;;;;4.72;3.30;;;9.10;51.50;;;7.16;59.50;96297.81;4903313;28;20336;-67
2022/04/10 07:54:00;;;;;;;4.95;3.38;;;9.10;49.90;;;7.02;59.06;96303.72;4892854;28;20504;-68
2022/04/10 07:56:27;;;;;;;5.65;3.50;;;8.60;51.40;;;6.90;58.93;96305.81;4894040;28;20261;-69
2022/04/10 07:58:53;;;;;;;6.65;3.45;;;8.60;51.40;;;6.81;58.69;96311.19;4897848;28;20689;-65
2022/04/10 08:01:19;;;;;;;4.38;3.50;;;8.60;51.90;;;6.80;58.72;96325.25;4892614;28;20064;-67
2022/04/10 08:03:51;;;;;;;5.95;3.63;;;8.60;51.30;;;6.70;57.95;96315.72;4886370;28;20399;-68
2022/04/10 08:06:18;;;;;;;6.50;3.40;;;8.40;51.30;;;6.64;58.28;96332.06;4895643;28;20435;-68
2022/04/10 08:08:44;;;;;;;6.03;3.40;;;8.30;51.40;;;6.53;58.30;96332.31;4907189;28;20327;-67
2022/04/10 08:11:10;;;;;;;7.25;3.35;;;8.20;52.30;;;6.50;58.38;96330.03;4887023;28;20441;-68
2022/04/10 08:13:37;;;;;;;6.30;3.60;;;8.40;52.60;;;6.51;58.24;96336.91;4882714;28;20344;-64
2022/04/10 08:16:03;;;;;;;5.28;3.47;;;8.60;52.00;;;6.57;58.68;96332.84;4887049;28;20046;-65
2022/04/10 08:18:29;;;;;;;6.43;3.70;;;8.70;51.30;;;6.66;57.95;96337.13;4902867;28;20328;-63
2022/04/10 08:20:56;;;;;;;5.70;3.50;;;8.90;50.50;;;6.69;58.67;96328.97;4908198;28;20408;-64
2022/04/10 08:23:22;;;;;;;5.75;3.33;;;9.00;51.10;;;6.73;57.74;96331.09;4917609;28;20502;-71
2022/04/10 08:25:48;;;;;;;5.75;3.20;;;9.00;49.30;;;6.94;57.80;96337.69;4876534;28;20615;-72
2022/04/10 08:28:15;;;;;;;7.10;3.50;;;9.90;48.90;;;7.19;57.92;96331.50;4875756;28;20369;-67
2022/04/10 08:30:41;;;;;;;6.22;3.03;;;10.10;47.50;;;7.33;56.88;96336.09;4923483;28;20721;-67
2022/04/10 08:33:08;;;;;;;4.57;3.00;;;9.90;47.00;;;7.34;55.69;96332.50;4902221;28;20347;-67
2022/04/10 08:35:34;;;;;;;5.45;3.30;;;9.50;47.30;;;7.45;55.53;96333.16;4871460;28;20391;-66
2022/04/10 08:38:00;;;;;;;4.85;2.97;;;10.00;47.00;;;7.72;55.08;96332.03;4893853;28;20414;-67
2022/04/10 08:40:28;;;;;;;4.80;3.00;;;10.40;45.20;;;8.11;54.22;96332.09;4905784;28;20516;-66
2022/04/10 08:42:54;;;;;;;4.63;3.03;;;11.20;43.70;;;8.58;53.66;96325.06;4893095;28;20212;-66
2022/04/10 08:45:25;;;;;;;4.53;3.08;;;11.90;42.00;;;9.08;51.77;96342.22;4895997;28;20391;-68
2022/04/10 08:47:51;;;;;;;5.80;2.83;;;12.20;41.40;;;9.38;52.78;96329.22;4904795;28;20370;-68
2022/04/10 08:50:18;;;;;;;7.38;2.80;;;12.10;42.30;;;9.44;51.68;96331.94;4894965;28;20374;-67
2022/04/10 08:52:45;;;;;;;3.75;2.33;;;11.80;42.30;;;9.42;51.33;96330.47;4873110;28;20485;-68
2022/04/10 08:55:11;;;;;;;5.10;2.55;;;11.80;42.30;;;9.44;49.65;96331.13;4871939;28;20296;-68
2022/04/10 08:57:37;;;;;;;5.38;2.90;;;11.60;41.80;;;9.44;49.70;96331.13;4886478;28;20345;-68
2022/04/10 09:00:04;;;;;;;4.30;2.60;;;11.80;41.30;;;9.40;50.14;96324.59;4910686;28;20302;-68
2022/04/10 09:02:30;;;;;;;6.13;2.53;;;11.40;41.90;;;9.39;48.99;96339.53;4876152;28;20291;-68
2022/04/10 09:04:56;;;;;;;6.05;2.70;;;11.60;41.70;;;9.49;50.50;96334.03;4894907;28;20371;-67
2022/04/10 09:07:22;;;;;;;3.85;2.40;;;12.00;43.00;;;9.77;48.82;96323.81;4900580;28;20348;-67
2022/04/10 09:09:56;;;;;;;4.78;2.33;;;12.60;40.90;;;10.24;47.48;96326.16;4886959;28;20508;-68
2022/04/10 09:12:23;;;;;;;7.03;3.70;;;13.30;38.50;;;10.71;48.60;96324.94;4883078;28;20549;-67
2022/04/10 09:14:50;;;;;;;9.07;7.10;;;14.30;38.90;;;11.23;48.24;96321.25;4881993;28;20807;-71
2022/04/10 09:17:23;;;;;;;4.53;2.67;;;14.50;37.80;;;11.38;44.78;96322.03;4912217;28;20351;-71
2022/04/10 09:19:53;;;;;;;5.20;2.50;;;14.00;36.80;;;11.33;45.48;96316.50;4910110;28;20300;-72
2022/04/10 09:22:27;;;;;;;7.30;2.65;;;13.90;36.90;;;11.51;43.88;96322.13;4891603;28;20279;-70
2022/04/10 09:25:07;;;;;;;4.20;2.30;;;14.20;36.10;;;11.54;43.10;96315.66;4899047;28;20695;-71
2022/04/10 09:27:35;;;;;;;6.10;2.55;;;13.90;36.90;;;11.65;45.08;96313.34;4913880;28;20349;-71
2022/04/10 09:30:01;;;;;;;5.20;3.20;;;14.10;36.30;;;11.55;45.10;96315.50;4899769;28;20687;-71
2022/04/10 09:32:44;;;;;;;6.00;3.20;;;13.50;37.50;;;11.51;42.96;96311.59;4890713;28;20295;-71
2022/04/10 09:35:12;;;;;;;4.10;2.30;;;13.80;37.50;;;11.73;43.96;96298.38;4881223;28;20223;-69
2022/04/10 09:37:57;;;;;;;4.07;2.05;;;14.40;35.80;;;12.29;41.06;96293.94;4883157;28;20497;-69
2022/04/10 09:40:32;;;;;;;5.55;2.63;;;15.70;33.90;;;12.61;41.49;96295.09;4888466;28;20042;-69
2022/04/10 09:43:07;;;;;;;2.70;1.60;;;15.60;33.50;;;12.50;39.58;96293.03;4921440;28;20501;-69
2022/04/10 09:45:40;;;;;;;2.88;2.08;;;14.40;32.20;;;12.08;42.04;96291.38;4874978;28;20431;-70
2022/04/10 09:48:32;;;;;;;3.30;1.90;;;13.50;35.00;;;11.66;39.27;96303.63;4915313;28;20326;-70
2022/04/10 09:51:03;;;;;;;8.90;2.28;;;12.90;35.50;;;11.11;41.11;96328.03;4894589;28;20363;-70
2022/04/10 09:53:29;;;;;;;;;;;11.70;38.40;;;10.41;43.57;96330.25;4907569;28;20223;-70
2022/04/10 09:56:05;;;;;;;4.07;2.00;;;10.90;42.50;;;9.83;46.66;96328.34;4892457;28;20320;-68
2022/04/10 09:58:35;;;;;;;8.77;5.10;;;10.60;46.30;;;9.51;46.39;96330.25;4896886;28;20375;-68
2022/04/10 10:01:03;;;;;;;8.57;5.80;;;10.60;45.80;;;9.33;46.92;96332.38;4891248;28;20438;-68
2022/04/10 10:03:30;;;;;;;5.65;3.90;;;10.80;46.30;;;9.44;47.64;96325.88;4909646;28;20497;-67
2022/04/10 10:05:57;;;;;;;16.10;10.95;;;12.10;45.10;;;9.68;48.27;96317.78;4882588;28;20344;-67
2022/04/10 10:08:24;;;;;;;11.15;7.32;;;12.60;43.20;;;9.82;47.86;96335.41;4868316;28;20680;-67
2022/04/10 10:10:50;;;;;;;15.40;10.88;;;12.20;42.90;;;9.73;47.53;96340.88;4909443;28;20446;-67
2022/04/10 10:13:16;;;;;;;4.32;3.08;;;11.60;43.10;;;9.71;47.93;96337.63;4883348;28;20303;-71
2022/04/10 10:15:43;;;;;;;8.43;4.22;;;12.00;42.50;;;10.19;47.97;96335.56;4904709;28;20489;-70
2022/04/10 10:18:11;;;;;;;4.88;2.42;;;13.60;41.40;;;10.87;47.39;96322.09;4926857;28;20579;-71
2022/04/10 10:20:38;;;;;;;5.65;3.35;;;14.60;38.10;;;11.14;45.94;96317.94;4909141;28;20498;-71
2022/04/10 10:23:08;;;;;;;7.10;4.60;;;13.80;38.90;;;11.14;44.45;96311.84;4892942;28;20325;-74
2022/04/10 10:25:38;;;;;;;16.93;11.57;;;13.30;38.60;;;11.03;44.77;96319.22;4903659;28;20530;-72
2022/04/10 10:28:55;;;;;;;5.28;2.63;;;12.80;38.80;;;10.90;43.10;96313.03;4901357;28;20609;-66
2022/04/10 10:31:40;;;;;;;5.57;2.25;;;12.80;38.10;;;11.12;43.18;96309.41;4908502;28;20429;-66
2022/04/10 10:34:07;;;;;;;2.90;1.83;;;14.60;35.90;;;11.76;44.00;96298.00;4909485;28;20575;-66
2022/04/10 10:36:34;;;;;;;4.07;1.80;;;16.30;34.10;;;12.37;42.47;96301.69;4919903;28;20351;-63
2022/04/10 10:39:00;;;;;;;5.60;2.67;;;16.90;32.60;;;12.81;42.92;96298.63;4890884;28;20343;-66